createdAt,value
2023-02-17T00:01:16.864Z,101622.78
2023-02-17T00:06:20.970Z,101606.50
2023-02-17T00:11:25.185Z,101615.34
2023-02-17T00:16:29.916Z,101586.16
2023-02-17T00:21:36.648Z,101596.69
2023-02-17T00:26:39.360Z,101579.53
2023-02-17T00:31:44.524Z,101591.03
2023-02-17T00:36:49.022Z,101579.53
2023-02-17T00:41:50.830Z,101577.56
2023-02-17T00:46:52.779Z,101581.06
2023-02-17T00:52:00.834Z,101573.91
2023-02-17T00:57:02.572Z,101578.38
2023-02-17T01:02:06.994Z,101575.59
2023-02-17T01:07:11.053Z,101580.91
2023-02-17T01:12:13.614Z,101571.25
2023-02-17T01:17:17.552Z,101556.09
2023-02-17T01:22:21.861Z,101544.41
2023-02-17T01:27:25.938Z,101549.75
2023-02-17T01:32:29.408Z,101555.75
2023-02-17T01:37:33.890Z,101545.09
2023-02-17T01:42:37.843Z,101537.94
2023-02-17T01:47:44.404Z,101543.94
2023-02-17T01:52:52.146Z,101540.31
2023-02-17T01:57:56.648Z,101526.97
2023-02-17T02:03:02.327Z,101517.81
2023-02-17T02:08:04.442Z,101507.00
2023-02-17T02:13:09.041Z,101498.00
2023-02-17T02:18:37.338Z,101484.38
2023-02-17T02:23:47.339Z,101477.22
2023-02-17T02:29:10.633Z,101473.06
2023-02-17T02:34:27.406Z,101459.63
2023-02-17T02:39:37.261Z,101442.31
2023-02-17T02:44:41.667Z,101446.50
2023-02-17T02:49:45.726Z,101449.72
2023-02-17T02:54:57.388Z,101443.06
2023-02-17T03:00:31.290Z,101435.75
2023-02-17T03:05:55.635Z,101430.09
2023-02-17T03:10:57.812Z,101427.41
2023-02-17T03:16:00.351Z,101411.75
2023-02-17T03:21:07.114Z,101401.78
2023-02-17T03:26:08.850Z,101405.13
2023-02-17T03:31:10.811Z,101386.97
2023-02-17T03:36:18.568Z,101388.63
2023-02-17T03:41:21.293Z,101375.97
2023-02-17T03:46:23.013Z,101383.81
2023-02-17T03:51:25.196Z,101379.00
2023-02-17T03:56:29.486Z,101368.34
2023-02-17T04:01:32.283Z,101367.84
2023-02-17T04:06:34.130Z,101366.00
2023-02-17T04:11:37.032Z,101350.66
2023-02-17T04:16:41.919Z,101335.63
2023-02-17T04:21:46.811Z,101321.31
2023-02-17T04:26:48.780Z,101308.94
2023-02-17T04:31:50.606Z,101308.63
2023-02-17T04:36:57.745Z,101317.13
2023-02-17T04:41:59.442Z,101333.16
2023-02-17T04:47:04.646Z,101320.81
2023-02-17T04:52:09.490Z,101310.97
2023-02-17T04:57:13.528Z,101309.13
2023-02-17T05:02:21.538Z,101296.47
2023-02-17T05:07:23.542Z,101291.13
2023-02-17T05:12:27.448Z,101279.44
2023-02-17T05:17:31.796Z,101288.13
2023-02-17T05:22:35.888Z,101284.66
2023-02-17T05:27:40.905Z,101268.63
2023-02-17T05:32:42.966Z,101279.44
2023-02-17T05:37:44.667Z,101264.25
2023-02-17T05:42:46.369Z,101259.25
2023-02-17T05:47:48.062Z,101255.91
2023-02-17T05:52:49.815Z,101246.72
2023-02-17T05:57:53.736Z,101240.03
2023-02-17T06:02:58.705Z,101236.72
2023-02-17T06:08:07.021Z,101244.19
2023-02-17T06:13:09.131Z,101226.97
2023-02-17T06:18:11.526Z,101214.44
2023-02-17T06:23:13.249Z,101218.44
2023-02-17T06:28:14.991Z,101217.06
2023-02-17T06:33:18.987Z,101201.22
2023-02-17T06:38:22.789Z,101210.22
2023-02-17T06:43:26.834Z,101207.72
2023-02-17T06:48:28.550Z,101235.91
2023-02-17T06:53:32.311Z,101212.91
2023-02-17T06:58:36.304Z,101212.91
2023-02-17T07:03:41.001Z,101207.72
2023-02-17T07:08:42.665Z,101206.22
2023-02-17T07:13:49.717Z,101206.50
2023-02-17T07:18:54.021Z,101192.50
2023-02-17T07:24:00.706Z,101159.66
2023-02-17T07:29:04.624Z,101157.16
2023-02-17T07:34:06.418Z,101151.81
2023-02-17T07:39:08.178Z,101158.13
2023-02-17T07:44:12.067Z,101141.97
2023-02-17T07:49:14.827Z,101132.72
2023-02-17T07:54:21.451Z,101148.22
2023-02-17T07:59:23.147Z,101110.56
2023-02-17T08:04:27.146Z,101102.38
2023-02-17T08:09:49.531Z,101118.88
2023-02-17T08:14:54.603Z,101084.34
2023-02-17T08:20:08.714Z,101104.72
2023-02-17T08:25:13.249Z,101085.84
2023-02-17T08:30:15.222Z,101075.84
2023-02-17T08:35:22.631Z,101098.53
2023-02-17T08:40:24.859Z,101086.41
2023-02-17T08:45:26.697Z,101096.56
2023-02-17T08:50:28.420Z,101096.22
2023-02-17T08:55:35.529Z,101104.75
2023-02-17T09:00:48.495Z,101096.09
2023-02-17T09:05:55.547Z,101083.22
2023-02-17T09:11:02.867Z,101095.22
2023-02-17T09:16:08.430Z,101047.50
2023-02-17T09:21:13.329Z,101040.50
2023-02-17T09:26:24.910Z,101063.69
2023-02-17T09:31:27.635Z,101057.66
2023-02-17T09:36:32.430Z,101056.66
2023-02-17T09:41:55.421Z,101085.34
2023-02-17T09:47:20.577Z,101072.66
2023-02-17T09:52:36.027Z,101088.84
2023-02-17T09:57:53.468Z,101122.88
2023-02-17T10:03:05.347Z,101121.56
2023-02-17T10:08:11.437Z,101112.34
2023-02-17T10:13:17.323Z,101107.66
2023-02-17T10:18:32.780Z,101111.69
2023-02-17T10:23:35.203Z,101092.59
2023-02-17T10:28:52.498Z,101114.31
2023-02-17T10:33:57.502Z,101109.44
2023-02-17T10:39:11.409Z,101106.25
2023-02-17T10:44:17.710Z,101085.53
2023-02-17T10:49:34.816Z,101107.22
2023-02-17T10:54:59.927Z,101093.69
2023-02-17T11:00:11.357Z,101081.81
2023-02-17T11:05:35.747Z,101104.03
2023-02-17T11:10:43.575Z,101069.88
2023-02-17T11:15:46.875Z,101102.25
2023-02-17T11:21:00.443Z,101087.91
2023-02-17T11:26:14.447Z,101094.72
2023-02-17T11:31:27.635Z,101091.41
2023-02-17T11:36:31.008Z,101077.31
2023-02-17T11:41:42.217Z,101061.44
2023-02-17T11:46:53.540Z,101068.09
2023-02-17T11:52:00.628Z,101067.91
2023-02-17T11:57:25.791Z,101061.38
2023-02-17T12:02:46.513Z,101067.69
2023-02-17T12:08:00.403Z,101069.28
2023-02-17T12:13:14.497Z,101061.00
2023-02-17T12:18:30.426Z,101081.00
2023-02-17T12:23:41.443Z,101074.56
2023-02-17T12:29:11.909Z,101075.97
2023-02-17T12:34:43.730Z,101077.44
2023-02-17T12:39:55.609Z,101078.97
2023-02-17T12:45:04.714Z,101075.91
2023-02-17T12:50:20.221Z,101075.72
2023-02-17T12:55:25.507Z,101085.41
2023-02-17T13:00:36.593Z,101102.53
2023-02-17T13:05:44.406Z,101091.38
2023-02-17T13:10:46.294Z,101091.22
2023-02-17T13:15:48.403Z,101085.19
2023-02-17T13:20:57.842Z,101102.94
2023-02-17T13:26:19.080Z,101093.03
2023-02-17T13:31:24.541Z,101095.91
2023-02-17T13:36:32.792Z,101087.78
2023-02-17T13:41:48.140Z,101114.34
2023-02-17T13:46:54.719Z,101114.44
2023-02-17T13:52:27.194Z,101137.25
2023-02-17T13:57:35.277Z,101131.59
2023-02-17T14:02:45.053Z,101119.66
2023-02-17T14:07:47.843Z,101146.94
2023-02-17T14:12:59.079Z,101190.44
2023-02-17T14:18:15.189Z,101146.91
2023-02-17T14:23:22.244Z,101192.56
2023-02-17T14:28:27.308Z,101187.63
2023-02-17T14:33:29.382Z,101213.88
2023-02-17T14:38:37.383Z,101201.88
2023-02-17T14:43:40.731Z,101228.53
2023-02-17T14:48:45.551Z,101229.69
2023-02-17T14:53:50.144Z,101258.47
2023-02-17T14:58:56.054Z,101270.69
2023-02-17T15:03:58.094Z,101276.84
2023-02-17T15:09:01.317Z,101305.56
2023-02-17T15:14:05.983Z,101290.91
2023-02-17T15:19:09.637Z,101303.19
2023-02-17T15:24:18.426Z,101314.25
2023-02-17T15:29:23.599Z,101330.31
2023-02-17T15:34:31.939Z,101330.66
2023-02-17T15:39:36.805Z,101345.53
2023-02-17T15:44:45.936Z,101365.38
2023-02-17T15:49:50.306Z,101375.03
2023-02-17T15:54:53.960Z,101384.50
2023-02-17T15:59:58.150Z,101392.75
2023-02-17T16:05:00.738Z,101419.25
2023-02-17T16:10:08.600Z,101388.13
2023-02-17T16:15:22.756Z,101417.22
2023-02-17T16:20:29.425Z,101427.38
2023-02-17T16:25:32.028Z,101419.63
2023-02-17T16:30:39.626Z,101428.84
2023-02-17T16:35:43.533Z,101429.53
2023-02-17T16:40:50.499Z,101459.91
2023-02-17T16:45:57.401Z,101499.38
2023-02-17T16:51:06.675Z,101476.34
2023-02-17T16:56:18.686Z,101504.94
2023-02-17T17:01:22.919Z,101508.34
2023-02-17T17:06:32.367Z,101525.22
2023-02-17T17:11:39.735Z,101552.16
2023-02-17T17:16:44.211Z,101564.09
2023-02-17T17:21:47.075Z,101547.31
2023-02-17T17:26:52.091Z,101564.00
2023-02-17T17:31:55.422Z,101545.94
2023-02-17T17:37:05.694Z,101587.13
2023-02-17T17:42:08.072Z,101578.56
2023-02-17T17:47:29.989Z,101591.91
2023-02-17T17:52:34.780Z,101577.47
2023-02-17T17:57:36.603Z,101613.88
2023-02-17T18:02:39.473Z,101618.06
2023-02-17T18:07:43.316Z,101629.72
2023-02-17T18:12:45.731Z,101634.19
2023-02-17T18:17:48.219Z,101641.19
2023-02-17T18:22:50.486Z,101645.81
2023-02-17T18:27:52.796Z,101646.09
2023-02-17T18:32:55.344Z,101660.25
2023-02-17T18:37:57.570Z,101678.56
2023-02-17T18:43:02.814Z,101666.25
2023-02-17T18:48:08.644Z,101668.22
2023-02-17T18:53:13.467Z,101681.94
2023-02-17T18:58:15.346Z,101688.63
2023-02-17T19:03:19.909Z,101698.69
2023-02-17T19:08:22.733Z,101683.00
2023-02-17T19:13:28.293Z,101714.22
2023-02-17T19:18:30.777Z,101723.31
2023-02-17T19:23:33.004Z,101726.66
2023-02-17T19:28:38.585Z,101747.50
2023-02-17T19:33:45.790Z,101758.88
2023-02-17T19:38:48.873Z,101763.63
2023-02-17T19:43:53.670Z,101767.09
2023-02-17T19:48:57.604Z,101776.47
2023-02-17T19:54:00.597Z,101777.91
2023-02-17T19:59:03.715Z,101780.66
2023-02-17T20:04:08.767Z,101783.72
2023-02-17T20:09:17.691Z,101807.50
2023-02-17T20:14:20.507Z,101800.75
2023-02-17T20:19:25.147Z,101799.16
2023-02-17T20:24:30.353Z,101802.13
2023-02-17T20:29:32.267Z,101819.03
2023-02-17T20:34:38.693Z,101806.53
2023-02-17T20:39:42.152Z,101815.66
2023-02-17T20:44:50.220Z,101808.38
2023-02-17T20:49:52.178Z,101822.38
2023-02-17T20:54:54.982Z,101840.78
2023-02-17T20:59:57.026Z,101842.31
2023-02-17T21:04:59.047Z,101850.66
2023-02-17T21:10:02.372Z,101858.75
2023-02-17T21:15:06.685Z,101846.84
2023-02-17T21:20:10.432Z,101860.56
2023-02-17T21:25:15.285Z,101852.59
2023-02-17T21:30:18.790Z,101852.94
2023-02-17T21:35:25.407Z,101871.56
2023-02-17T21:40:27.200Z,101837.38
2023-02-17T21:45:29.102Z,101839.97
2023-02-17T21:50:35.401Z,101843.56
2023-02-17T21:55:39.589Z,101850.22
2023-02-17T22:00:54.167Z,101845.03
2023-02-17T22:05:58.305Z,101853.25
2023-02-17T22:11:00.096Z,101850.88
2023-02-17T22:16:02.231Z,101868.13
2023-02-17T22:21:13.775Z,101863.28
2023-02-17T22:26:19.416Z,101859.81
2023-02-17T22:31:23.515Z,101857.59
2023-02-17T22:36:27.456Z,101860.97
2023-02-17T22:41:33.741Z,101870.88
2023-02-17T22:46:37.975Z,101875.22
2023-02-17T22:51:45.149Z,101887.03
2023-02-17T22:56:46.860Z,101879.06
2023-02-17T23:01:53.568Z,101877.50
2023-02-17T23:06:59.326Z,101864.34
2023-02-17T23:12:05.746Z,101879.66
2023-02-17T23:17:12.363Z,101870.47
2023-02-17T23:22:16.783Z,101872.31
2023-02-17T23:27:18.684Z,101870.72
2023-02-17T23:32:20.450Z,101883.38
2023-02-17T23:37:27.488Z,101888.53
2023-02-17T23:42:31.408Z,101881.78
2023-02-17T23:47:36.489Z,101862.09
2023-02-17T23:52:42.048Z,101881.91
2023-02-17T23:57:44.107Z,101884.81
